sensor_id;sensor_type;location;lat;lon;timestamp;P1;durP1;ratioP1;P2;durP2;ratioP2
14019;SDS011;7085;51.428;6.796;2022-10-22T00:00:58;2.97;;;2.60;;
14019;SDS011;7085;51.428;6.796;2022-10-22T00:03:24;5.72;;;3.00;;
14019;SDS011;7085;51.428;6.796;2022-10-22T00:05:51;4.68;;;2.35;;
14019;SDS011;7085;51.428;6.796;2022-10-22T00:08:18;7.88;;;2.85;;
14019;SDS011;7085;51.428;6.796;2022-10-22T00:10:45;3.63;;;2.58;;
14019;SDS011;7085;51.428;6.796;2022-10-22T00:13:13;5.28;;;2.25;;
14019;SDS011;7085;51.428;6.796;2022-10-22T00:15:40;5.40;;;2.40;;
14019;SDS011;7085;51.428;6.796;2022-10-22T00:18:07;6.03;;;2.38;;
14019;SDS011;7085;51.428;6.796;2022-10-22T00:20:34;5.80;;;2.53;;
14019;SDS011;7085;51.428;6.796;2022-10-22T00:23:00;3.15;;;2.50;;
14019;SDS011;7085;51.428;6.796;2022-10-22T00:25:27;3.35;;;2.53;;
14019;SDS011;7085;51.428;6.796;2022-10-22T00:27:54;4.45;;;2.47;;
14019;SDS011;7085;51.428;6.796;2022-10-22T00:30:22;7.93;;;2.70;;
14019;SDS011;7085;51.428;6.796;2022-10-22T00:32:49;10.18;;;2.92;;
14019;SDS011;7085;51.428;6.796;2022-10-22T00:35:15;5.63;;;2.58;;
14019;SDS011;7085;51.428;6.796;2022-10-22T00:37:42;4.25;;;3.13;;
14019;SDS011;7085;51.428;6.796;2022-10-22T00:40:09;6.80;;;2.75;;
14019;SDS011;7085;51.428;6.796;2022-10-22T00:42:37;5.60;;;2.45;;
14019;SDS011;7085;51.428;6.796;2022-10-22T00:45:13;3.15;;;2.47;;
14019;SDS011;7085;51.428;6.796;2022-10-22T00:47:47;5.05;;;2.72;;
14019;SDS011;7085;51.428;6.796;2022-10-22T00:50:19;10.15;;;3.17;;
14019;SDS011;7085;51.428;6.796;2022-10-22T00:52:48;5.35;;;3.17;;
14019;SDS011;7085;51.428;6.796;2022-10-22T00:55:15;4.57;;;2.80;;
14019;SDS011;7085;51.428;6.796;2022-10-22T00:57:43;8.57;;;3.67;;
14019;SDS011;7085;51.428;6.796;2022-10-22T01:00:11;7.50;;;2.60;;
14019;SDS011;7085;51.428;6.796;2022-10-22T01:02:38;4.07;;;2.17;;
14019;SDS011;7085;51.428;6.796;2022-10-22T01:05:07;8.82;;;2.60;;
14019;SDS011;7085;51.428;6.796;2022-10-22T01:07:34;5.95;;;2.30;;
14019;SDS011;7085;51.428;6.796;2022-10-22T01:10:07;4.10;;;2.88;;
14019;SDS011;7085;51.428;6.796;2022-10-22T01:12:41;4.82;;;3.28;;
14019;SDS011;7085;51.428;6.796;2022-10-22T01:15:17;4.90;;;2.80;;
14019;SDS011;7085;51.428;6.796;2022-10-22T01:17:52;6.05;;;3.15;;
14019;SDS011;7085;51.428;6.796;2022-10-22T01:23:24;7.45;;;2.83;;
14019;SDS011;7085;51.428;6.796;2022-10-22T01:26:30;9.05;;;3.65;;
14019;SDS011;7085;51.428;6.796;2022-10-22T01:29:09;6.07;;;2.55;;
14019;SDS011;7085;51.428;6.796;2022-10-22T01:31:39;9.45;;;3.17;;
14019;SDS011;7085;51.428;6.796;2022-10-22T01:34:09;10.27;;;2.97;;
14019;SDS011;7085;51.428;6.796;2022-10-22T01:36:39;8.30;;;3.03;;
14019;SDS011;7085;51.428;6.796;2022-10-22T01:39:07;5.30;;;3.03;;
14019;SDS011;7085;51.428;6.796;2022-10-22T01:41:35;4.82;;;2.90;;
14019;SDS011;7085;51.428;6.796;2022-10-22T01:44:05;5.13;;;2.90;;
14019;SDS011;7085;51.428;6.796;2022-10-22T01:46:33;5.10;;;3.25;;
14019;SDS011;7085;51.428;6.796;2022-10-22T01:49:05;7.28;;;3.10;;
14019;SDS011;7085;51.428;6.796;2022-10-22T01:51:44;6.75;;;2.85;;
14019;SDS011;7085;51.428;6.796;2022-10-22T01:54:20;3.58;;;3.25;;
14019;SDS011;7085;51.428;6.796;2022-10-22T01:56:56;4.80;;;2.72;;
14019;SDS011;7085;51.428;6.796;2022-10-22T01:59:33;4.43;;;2.80;;
14019;SDS011;7085;51.428;6.796;2022-10-22T02:02:12;6.38;;;2.90;;
14019;SDS011;7085;51.428;6.796;2022-10-22T02:04:49;4.60;;;3.17;;
14019;SDS011;7085;51.428;6.796;2022-10-22T02:07:20;9.07;;;3.13;;
14019;SDS011;7085;51.428;6.796;2022-10-22T02:09:50;7.65;;;3.58;;
14019;SDS011;7085;51.428;6.796;2022-10-22T02:12:19;5.15;;;3.38;;
14019;SDS011;7085;51.428;6.796;2022-10-22T02:14:47;7.57;;;3.20;;
14019;SDS011;7085;51.428;6.796;2022-10-22T02:17:17;6.50;;;3.13;;
14019;SDS011;7085;51.428;6.796;2022-10-22T02:19:47;7.40;;;3.58;;
14019;SDS011;7085;51.428;6.796;2022-10-22T02:22:17;7.22;;;3.00;;
14019;SDS011;7085;51.428;6.796;2022-10-22T02:24:45;6.47;;;3.20;;
14019;SDS011;7085;51.428;6.796;2022-10-22T02:27:15;6.68;;;3.65;;
14019;SDS011;7085;51.428;6.796;2022-10-22T02:29:48;6.70;;;3.75;;
14019;SDS011;7085;51.428;6.796;2022-10-22T02:32:21;7.10;;;3.17;;
14019;SDS011;7085;51.428;6.796;2022-10-22T02:34:52;5.38;;;3.20;;
14019;SDS011;7085;51.428;6.796;2022-10-22T02:37:20;7.35;;;3.85;;
14019;SDS011;7085;51.428;6.796;2022-10-22T02:39:49;4.93;;;3.30;;
14019;SDS011;7085;51.428;6.796;2022-10-22T02:42:17;6.40;;;3.22;;
14019;SDS011;7085;51.428;6.796;2022-10-22T02:44:44;6.25;;;3.20;;
14019;SDS011;7085;51.428;6.796;2022-10-22T02:47:10;7.38;;;2.95;;
14019;SDS011;7085;51.428;6.796;2022-10-22T02:49:38;9.98;;;3.40;;
14019;SDS011;7085;51.428;6.796;2022-10-22T02:52:05;4.13;;;2.75;;
14019;SDS011;7085;51.428;6.796;2022-10-22T02:54:32;9.20;;;3.15;;
14019;SDS011;7085;51.428;6.796;2022-10-22T02:56:58;4.07;;;2.85;;
14019;SDS011;7085;51.428;6.796;2022-10-22T02:59:25;7.50;;;3.55;;
14019;SDS011;7085;51.428;6.796;2022-10-22T03:01:52;5.78;;;3.30;;
14019;SDS011;7085;51.428;6.796;2022-10-22T03:04:18;5.82;;;3.38;;
14019;SDS011;7085;51.428;6.796;2022-10-22T03:06:46;6.30;;;3.47;;
14019;SDS011;7085;51.428;6.796;2022-10-22T03:09:13;6.95;;;3.33;;
14019;SDS011;7085;51.428;6.796;2022-10-22T03:11:40;7.43;;;3.10;;
14019;SDS011;7085;51.428;6.796;2022-10-22T03:14:06;9.45;;;3.28;;
14019;SDS011;7085;51.428;6.796;2022-10-22T03:16:33;5.43;;;3.45;;
14019;SDS011;7085;51.428;6.796;2022-10-22T03:19:00;6.00;;;3.53;;
14019;SDS011;7085;51.428;6.796;2022-10-22T03:21:28;8.13;;;3.65;;
14019;SDS011;7085;51.428;6.796;2022-10-22T03:24:01;4.88;;;2.97;;
14019;SDS011;7085;51.428;6.796;2022-10-22T03:26:32;6.28;;;3.67;;
14019;SDS011;7085;51.428;6.796;2022-10-22T03:28:59;3.80;;;3.17;;
14019;SDS011;7085;51.428;6.796;2022-10-22T03:31:26;7.82;;;3.95;;
14019;SDS011;7085;51.428;6.796;2022-10-22T03:33:52;9.00;;;3.50;;
14019;SDS011;7085;51.428;6.796;2022-10-22T03:36:19;9.75;;;4.68;;
14019;SDS011;7085;51.428;6.796;2022-10-22T03:38:46;4.18;;;3.30;;
14019;SDS011;7085;51.428;6.796;2022-10-22T03:41:14;5.88;;;3.53;;
14019;SDS011;7085;51.428;6.796;2022-10-22T03:43:41;6.38;;;3.80;;
14019;SDS011;7085;51.428;6.796;2022-10-22T03:46:13;7.40;;;4.05;;
14019;SDS011;7085;51.428;6.796;2022-10-22T03:48:40;9.52;;;4.18;;
14019;SDS011;7085;51.428;6.796;2022-10-22T03:51:07;6.53;;;3.50;;
14019;SDS011;7085;51.428;6.796;2022-10-22T03:53:33;6.55;;;3.75;;
14019;SDS011;7085;51.428;6.796;2022-10-22T03:56:00;4.78;;;4.25;;
14019;SDS011;7085;51.428;6.796;2022-10-22T03:58:28;4.88;;;3.55;;
14019;SDS011;7085;51.428;6.796;2022-10-22T04:00:55;4.68;;;4.10;;
14019;SDS011;7085;51.428;6.796;2022-10-22T04:03:21;5.90;;;3.97;;
14019;SDS011;7085;51.428;6.796;2022-10-22T04:05:48;8.27;;;4.43;;
14019;SDS011;7085;51.428;6.796;2022-10-22T04:08:15;7.18;;;4.43;;
14019;SDS011;7085;51.428;6.796;2022-10-22T04:10:41;8.90;;;3.97;;
14019;SDS011;7085;51.428;6.796;2022-10-22T04:13:15;5.53;;;3.70;;
14019;SDS011;7085;51.428;6.796;2022-10-22T04:15:43;6.72;;;4.43;;
14019;SDS011;7085;51.428;6.796;2022-10-22T04:18:10;6.95;;;4.47;;
14019;SDS011;7085;51.428;6.796;2022-10-22T04:20:36;8.38;;;4.68;;
14019;SDS011;7085;51.428;6.796;2022-10-22T04:23:03;8.60;;;4.32;;
14019;SDS011;7085;51.428;6.796;2022-10-22T04:25:30;10.82;;;4.15;;
14019;SDS011;7085;51.428;6.796;2022-10-22T04:27:56;6.70;;;3.97;;
14019;SDS011;7085;51.428;6.796;2022-10-22T04:30:23;7.28;;;4.32;;
14019;SDS011;7085;51.428;6.796;2022-10-22T04:32:51;4.20;;;3.80;;
14019;SDS011;7085;51.428;6.796;2022-10-22T04:35:18;9.68;;;4.25;;
14019;SDS011;7085;51.428;6.796;2022-10-22T04:37:44;6.30;;;4.35;;
14019;SDS011;7085;51.428;6.796;2022-10-22T04:40:11;8.52;;;4.35;;
14019;SDS011;7085;51.428;6.796;2022-10-22T04:42:38;6.80;;;4.50;;
14019;SDS011;7085;51.428;6.796;2022-10-22T04:45:05;7.18;;;4.13;;
14019;SDS011;7085;51.428;6.796;2022-10-22T04:47:32;6.05;;;4.30;;
14019;SDS011;7085;51.428;6.796;2022-10-22T04:50:00;10.02;;;5.50;;
14019;SDS011;7085;51.428;6.796;2022-10-22T04:52:27;9.60;;;4.80;;
14019;SDS011;7085;51.428;6.796;2022-10-22T04:54:53;7.10;;;4.95;;
14019;SDS011;7085;51.428;6.796;2022-10-22T04:57:20;6.93;;;4.65;;
14019;SDS011;7085;51.428;6.796;2022-10-22T04:59:47;8.32;;;4.03;;
14019;SDS011;7085;51.428;6.796;2022-10-22T05:02:13;8.32;;;4.28;;
14019;SDS011;7085;51.428;6.796;2022-10-22T05:04:42;8.27;;;4.47;;
14019;SDS011;7085;51.428;6.796;2022-10-22T05:07:13;6.03;;;4.35;;
14019;SDS011;7085;51.428;6.796;2022-10-22T05:09:39;6.18;;;4.75;;
14019;SDS011;7085;51.428;6.796;2022-10-22T05:12:06;10.77;;;4.45;;
14019;SDS011;7085;51.428;6.796;2022-10-22T05:14:33;6.38;;;5.00;;
14019;SDS011;7085;51.428;6.796;2022-10-22T05:16:59;5.70;;;4.07;;
14019;SDS011;7085;51.428;6.796;2022-10-22T05:19:26;5.15;;;4.57;;
14019;SDS011;7085;51.428;6.796;2022-10-22T05:21:55;6.32;;;5.70;;
14019;SDS011;7085;51.428;6.796;2022-10-22T05:24:25;6.72;;;5.22;;
14019;SDS011;7085;51.428;6.796;2022-10-22T05:26:52;6.25;;;4.75;;
14019;SDS011;7085;51.428;6.796;2022-10-22T05:29:21;7.47;;;5.20;;
14019;SDS011;7085;51.428;6.796;2022-10-22T05:31:48;11.95;;;4.88;;
14019;SDS011;7085;51.428;6.796;2022-10-22T05:34:15;12.45;;;5.68;;
14019;SDS011;7085;51.428;6.796;2022-10-22T05:36:42;6.60;;;5.75;;
14019;SDS011;7085;51.428;6.796;2022-10-22T05:39:09;7.53;;;4.50;;
14019;SDS011;7085;51.428;6.796;2022-10-22T05:41:37;10.65;;;5.13;;
14019;SDS011;7085;51.428;6.796;2022-10-22T05:44:04;8.85;;;6.18;;
14019;SDS011;7085;51.428;6.796;2022-10-22T05:46:32;8.88;;;5.50;;
14019;SDS011;7085;51.428;6.796;2022-10-22T05:49:01;8.98;;;5.65;;
14019;SDS011;7085;51.428;6.796;2022-10-22T05:51:31;10.60;;;6.13;;
14019;SDS011;7085;51.428;6.796;2022-10-22T05:53:59;8.07;;;5.15;;
14019;SDS011;7085;51.428;6.796;2022-10-22T05:56:28;9.25;;;5.65;;
14019;SDS011;7085;51.428;6.796;2022-10-22T05:58:57;8.63;;;5.38;;
14019;SDS011;7085;51.428;6.796;2022-10-22T06:01:25;11.30;;;5.68;;
14019;SDS011;7085;51.428;6.796;2022-10-22T06:03:53;8.68;;;6.18;;
14019;SDS011;7085;51.428;6.796;2022-10-22T06:06:21;7.95;;;5.45;;
14019;SDS011;7085;51.428;6.796;2022-10-22T06:08:52;10.23;;;5.38;;
14019;SDS011;7085;51.428;6.796;2022-10-22T06:11:20;16.05;;;6.10;;
14019;SDS011;7085;51.428;6.796;2022-10-22T06:13:48;10.80;;;5.72;;
14019;SDS011;7085;51.428;6.796;2022-10-22T06:16:17;9.15;;;5.50;;
14019;SDS011;7085;51.428;6.796;2022-10-22T06:18:44;10.32;;;6.03;;
14019;SDS011;7085;51.428;6.796;2022-10-22T06:21:12;8.55;;;6.35;;
14019;SDS011;7085;51.428;6.796;2022-10-22T06:23:42;9.27;;;5.90;;
14019;SDS011;7085;51.428;6.796;2022-10-22T06:26:09;12.48;;;5.60;;
14019;SDS011;7085;51.428;6.796;2022-10-22T06:28:36;10.35;;;6.03;;
14019;SDS011;7085;51.428;6.796;2022-10-22T06:31:04;9.23;;;6.20;;
14019;SDS011;7085;51.428;6.796;2022-10-22T06:33:33;8.02;;;6.47;;
14019;SDS011;7085;51.428;6.796;2022-10-22T06:36:06;8.65;;;5.47;;
14019;SDS011;7085;51.428;6.796;2022-10-22T06:38:34;9.07;;;6.40;;
14019;SDS011;7085;51.428;6.796;2022-10-22T06:41:01;8.70;;;6.65;;
14019;SDS011;7085;51.428;6.796;2022-10-22T06:43:28;9.50;;;6.40;;
14019;SDS011;7085;51.428;6.796;2022-10-22T06:45:57;9.70;;;5.68;;
14019;SDS011;7085;51.428;6.796;2022-10-22T06:48:24;9.40;;;5.90;;
14019;SDS011;7085;51.428;6.796;2022-10-22T06:50:52;10.82;;;5.20;;
14019;SDS011;7085;51.428;6.796;2022-10-22T06:53:19;7.95;;;5.40;;
14019;SDS011;7085;51.428;6.796;2022-10-22T06:55:46;9.98;;;5.22;;
14019;SDS011;7085;51.428;6.796;2022-10-22T06:58:12;7.85;;;4.95;;
14019;SDS011;7085;51.428;6.796;2022-10-22T07:00:39;6.60;;;4.60;;
14019;SDS011;7085;51.428;6.796;2022-10-22T07:03:06;7.60;;;4.97;;
14019;SDS011;7085;51.428;6.796;2022-10-22T07:05:33;5.10;;;4.57;;
14019;SDS011;7085;51.428;6.796;2022-10-22T07:08:01;7.47;;;4.40;;
14019;SDS011;7085;51.428;6.796;2022-10-22T07:10:28;7.25;;;4.60;;
14019;SDS011;7085;51.428;6.796;2022-10-22T07:12:55;5.75;;;4.25;;
14019;SDS011;7085;51.428;6.796;2022-10-22T07:15:21;4.70;;;3.75;;
14019;SDS011;7085;51.428;6.796;2022-10-22T07:17:48;8.32;;;4.22;;
14019;SDS011;7085;51.428;6.796;2022-10-22T07:20:15;10.80;;;3.95;;
14019;SDS011;7085;51.428;6.796;2022-10-22T07:22:42;7.90;;;3.60;;
14019;SDS011;7085;51.428;6.796;2022-10-22T07:25:11;4.45;;;3.53;;
14019;SDS011;7085;51.428;6.796;2022-10-22T07:27:37;8.02;;;3.50;;
14019;SDS011;7085;51.428;6.796;2022-10-22T07:30:04;6.82;;;3.60;;
14019;SDS011;7085;51.428;6.796;2022-10-22T07:32:32;8.57;;;3.95;;
14019;SDS011;7085;51.428;6.796;2022-10-22T07:34:59;6.72;;;3.15;;
14019;SDS011;7085;51.428;6.796;2022-10-22T07:37:25;5.05;;;3.05;;
14019;SDS011;7085;51.428;6.796;2022-10-22T07:39:52;5.68;;;3.72;;
14019;SDS011;7085;51.428;6.796;2022-10-22T07:42:20;13.05;;;4.25;;
14019;SDS011;7085;51.428;6.796;2022-10-22T07:44:47;6.13;;;3.03;;
14019;SDS011;7085;51.428;6.796;2022-10-22T07:47:13;5.15;;;2.90;;
14019;SDS011;7085;51.428;6.796;2022-10-22T07:49:40;5.63;;;2.85;;
14019;SDS011;7085;51.428;6.796;2022-10-22T07:52:07;9.07;;;3.08;;
14019;SDS011;7085;51.428;6.796;2022-10-22T07:54:33;6.03;;;3.58;;
14019;SDS011;7085;51.428;6.796;2022-10-22T07:57:00;10.63;;;3.35;;
14019;SDS011;7085;51.428;6.796;2022-10-22T07:59:28;4.93;;;3.03;;
14019;SDS011;7085;51.428;6.796;2022-10-22T08:01:55;3.50;;;2.97;;
14019;SDS011;7085;51.428;6.796;2022-10-22T08:04:21;7.25;;;2.50;;
14019;SDS011;7085;51.428;6.796;2022-10-22T08:06:48;6.05;;;2.97;;
14019;SDS011;7085;51.428;6.796;2022-10-22T08:09:15;5.53;;;2.80;;
14019;SDS011;7085;51.428;6.796;2022-10-22T08:11:41;3.70;;;2.45;;
14019;SDS011;7085;51.428;6.796;2022-10-22T08:14:08;6.50;;;2.30;;
14019;SDS011;7085;51.428;6.796;2022-10-22T08:16:36;5.78;;;2.65;;
14019;SDS011;7085;51.428;6.796;2022-10-22T08:19:03;5.88;;;2.50;;
14019;SDS011;7085;51.428;6.796;2022-10-22T08:21:30;6.85;;;2.38;;
14019;SDS011;7085;51.428;6.796;2022-10-22T08:23:56;6.65;;;2.58;;
14019;SDS011;7085;51.428;6.796;2022-10-22T08:26:23;9.10;;;3.17;;
14019;SDS011;7085;51.428;6.796;2022-10-22T08:28:50;3.70;;;2.22;;
14019;SDS011;7085;51.428;6.796;2022-10-22T08:31:16;4.72;;;2.05;;
14019;SDS011;7085;51.428;6.796;2022-10-22T08:33:44;4.70;;;2.47;;
14019;SDS011;7085;51.428;6.796;2022-10-22T08:36:11;8.90;;;2.70;;
14019;SDS011;7085;51.428;6.796;2022-10-22T08:38:38;5.30;;;2.33;;
14019;SDS011;7085;51.428;6.796;2022-10-22T08:41:07;8.00;;;2.42;;
14019;SDS011;7085;51.428;6.796;2022-10-22T08:43:40;7.35;;;2.10;;
14019;SDS011;7085;51.428;6.796;2022-10-22T08:46:28;5.75;;;2.45;;
14019;SDS011;7085;51.428;6.796;2022-10-22T08:49:09;5.90;;;2.17;;
14019;SDS011;7085;51.428;6.796;2022-10-22T08:51:42;8.48;;;2.30;;
14019;SDS011;7085;51.428;6.796;2022-10-22T08:54:14;5.93;;;2.17;;
14019;SDS011;7085;51.428;6.796;2022-10-22T08:56:46;7.22;;;2.00;;
14019;SDS011;7085;51.428;6.796;2022-10-22T08:59:20;3.58;;;2.10;;
14019;SDS011;7085;51.428;6.796;2022-10-22T09:01:52;10.40;;;2.53;;
14019;SDS011;7085;51.428;6.796;2022-10-22T09:04:22;6.10;;;2.10;;
14019;SDS011;7085;51.428;6.796;2022-10-22T09:06:52;5.72;;;2.08;;
14019;SDS011;7085;51.428;6.796;2022-10-22T09:09:22;6.50;;;1.75;;
14019;SDS011;7085;51.428;6.796;2022-10-22T09:11:52;5.82;;;2.08;;
14019;SDS011;7085;51.428;6.796;2022-10-22T09:14:22;7.00;;;2.13;;
14019;SDS011;7085;51.428;6.796;2022-10-22T09:16:55;4.43;;;1.88;;
14019;SDS011;7085;51.428;6.796;2022-10-22T09:19:37;5.65;;;1.88;;
14019;SDS011;7085;51.428;6.796;2022-10-22T09:22:14;6.75;;;1.70;;
14019;SDS011;7085;51.428;6.796;2022-10-22T09:24:50;5.00;;;1.50;;
14019;SDS011;7085;51.428;6.796;2022-10-22T09:27:25;4.40;;;1.63;;
14019;SDS011;7085;51.428;6.796;2022-10-22T09:29:53;3.63;;;1.65;;
14019;SDS011;7085;51.428;6.796;2022-10-22T09:32:20;6.97;;;2.05;;
14019;SDS011;7085;51.428;6.796;2022-10-22T09:34:49;9.18;;;2.55;;
14019;SDS011;7085;51.428;6.796;2022-10-22T09:37:24;8.45;;;2.05;;
14019;SDS011;7085;51.428;6.796;2022-10-22T09:39:53;5.53;;;1.85;;
14019;SDS011;7085;51.428;6.796;2022-10-22T09:42:21;6.03;;;1.77;;
14019;SDS011;7085;51.428;6.796;2022-10-22T09:44:50;6.90;;;1.95;;
14019;SDS011;7085;51.428;6.796;2022-10-22T09:47:30;5.18;;;2.20;;
14019;SDS011;7085;51.428;6.796;2022-10-22T09:50:17;5.15;;;1.88;;
14019;SDS011;7085;51.428;6.796;2022-10-22T09:52:51;7.20;;;1.60;;
14019;SDS011;7085;51.428;6.796;2022-10-22T09:55:23;4.88;;;1.58;;
14019;SDS011;7085;51.428;6.796;2022-10-22T09:57:51;4.32;;;1.90;;
14019;SDS011;7085;51.428;6.796;2022-10-22T10:00:19;4.88;;;1.50;;
14019;SDS011;7085;51.428;6.796;2022-10-22T10:02:52;3.00;;;1.42;;
14019;SDS011;7085;51.428;6.796;2022-10-22T10:05:26;7.35;;;1.77;;
14019;SDS011;7085;51.428;6.796;2022-10-22T10:07:55;6.15;;;1.35;;
14019;SDS011;7085;51.428;6.796;2022-10-22T10:10:27;6.00;;;1.75;;
14019;SDS011;7085;51.428;6.796;2022-10-22T10:13:01;4.97;;;1.42;;
14019;SDS011;7085;51.428;6.796;2022-10-22T10:15:36;6.20;;;1.60;;
14019;SDS011;7085;51.428;6.796;2022-10-22T10:18:11;5.35;;;1.65;;
14019;SDS011;7085;51.428;6.796;2022-10-22T10:20:50;4.03;;;1.30;;
14019;SDS011;7085;51.428;6.796;2022-10-22T10:23:23;4.38;;;1.35;;
14019;SDS011;7085;51.428;6.796;2022-10-22T10:25:57;4.63;;;1.70;;
14019;SDS011;7085;51.428;6.796;2022-10-22T10:28:33;3.17;;;1.20;;
14019;SDS011;7085;51.428;6.796;2022-10-22T10:31:09;4.13;;;1.35;;
14019;SDS011;7085;51.428;6.796;2022-10-22T10:33:44;8.60;;;1.55;;
14019;SDS011;7085;51.428;6.796;2022-10-22T10:36:21;4.00;;;1.80;;
14019;SDS011;7085;51.428;6.796;2022-10-22T10:38:56;5.15;;;1.60;;
14019;SDS011;7085;51.428;6.796;2022-10-22T10:41:31;2.03;;;1.27;;
14019;SDS011;7085;51.428;6.796;2022-10-22T10:44:11;3.92;;;1.52;;
14019;SDS011;7085;51.428;6.796;2022-10-22T10:46:46;3.83;;;1.35;;
14019;SDS011;7085;51.428;6.796;2022-10-22T10:49:21;3.22;;;1.20;;
14019;SDS011;7085;51.428;6.796;2022-10-22T10:51:55;4.70;;;1.67;;
14019;SDS011;7085;51.428;6.796;2022-10-22T10:54:31;3.10;;;1.42;;
14019;SDS011;7085;51.428;6.796;2022-10-22T10:57:06;4.68;;;1.13;;
14019;SDS011;7085;51.428;6.796;2022-10-22T10:59:44;2.80;;;1.30;;
14019;SDS011;7085;51.428;6.796;2022-10-22T11:02:37;4.60;;;1.40;;
14019;SDS011;7085;51.428;6.796;2022-10-22T11:05:27;7.60;;;1.23;;
14019;SDS011;7085;51.428;6.796;2022-10-22T11:08:01;4.55;;;1.58;;
14019;SDS011;7085;51.428;6.796;2022-10-22T11:10:32;4.10;;;1.42;;
14019;SDS011;7085;51.428;6.796;2022-10-22T11:13:05;2.13;;;1.33;;
14019;SDS011;7085;51.428;6.796;2022-10-22T11:15:41;4.47;;;1.25;;
14019;SDS011;7085;51.428;6.796;2022-10-22T11:18:13;5.18;;;2.03;;
14019;SDS011;7085;51.428;6.796;2022-10-22T11:20:49;4.43;;;1.70;;
14019;SDS011;7085;51.428;6.796;2022-10-22T11:23:24;6.03;;;1.65;;
14019;SDS011;7085;51.428;6.796;2022-10-22T11:25:55;5.03;;;1.67;;
14019;SDS011;7085;51.428;6.796;2022-10-22T11:28:24;5.20;;;1.80;;
14019;SDS011;7085;51.428;6.796;2022-10-22T11:30:57;3.00;;;1.13;;
14019;SDS011;7085;51.428;6.796;2022-10-22T11:36:49;3.15;;;1.63;;
14019;SDS011;7085;51.428;6.796;2022-10-22T11:39:29;5.35;;;1.60;;
14019;SDS011;7085;51.428;6.796;2022-10-22T11:42:01;6.22;;;2.03;;
14019;SDS011;7085;51.428;6.796;2022-10-22T11:44:30;6.68;;;2.53;;
14019;SDS011;7085;51.428;6.796;2022-10-22T11:47:08;6.63;;;1.95;;
14019;SDS011;7085;51.428;6.796;2022-10-22T11:49:43;4.72;;;1.85;;
14019;SDS011;7085;51.428;6.796;2022-10-22T11:52:23;4.15;;;2.25;;
14019;SDS011;7085;51.428;6.796;2022-10-22T11:54:54;2.60;;;1.30;;
14019;SDS011;7085;51.428;6.796;2022-10-22T11:57:25;4.85;;;1.58;;
14019;SDS011;7085;51.428;6.796;2022-10-22T11:59:55;4.63;;;1.10;;
14019;SDS011;7085;51.428;6.796;2022-10-22T12:02:31;5.82;;;1.10;;
14019;SDS011;7085;51.428;6.796;2022-10-22T12:08:19;5.00;;;1.33;;
14019;SDS011;7085;51.428;6.796;2022-10-22T12:10:59;4.93;;;1.50;;
14019;SDS011;7085;51.428;6.796;2022-10-22T12:13:50;4.57;;;1.65;;
14019;SDS011;7085;51.428;6.796;2022-10-22T12:16:23;4.25;;;1.58;;
14019;SDS011;7085;51.428;6.796;2022-10-22T12:18:54;4.68;;;1.55;;
14019;SDS011;7085;51.428;6.796;2022-10-22T12:21:26;3.00;;;1.20;;
14019;SDS011;7085;51.428;6.796;2022-10-22T12:23:53;3.88;;;1.98;;
14019;SDS011;7085;51.428;6.796;2022-10-22T12:26:23;4.68;;;1.42;;
14019;SDS011;7085;51.428;6.796;2022-10-22T12:28:55;4.32;;;1.73;;
14019;SDS011;7085;51.428;6.796;2022-10-22T12:31:22;10.20;;;2.05;;
14019;SDS011;7085;51.428;6.796;2022-10-22T12:33:54;4.32;;;1.83;;
14019;SDS011;7085;51.428;6.796;2022-10-22T12:36:21;3.28;;;1.65;;
14019;SDS011;7085;51.428;6.796;2022-10-22T12:38:51;4.65;;;1.70;;
14019;SDS011;7085;51.428;6.796;2022-10-22T12:41:18;3.45;;;1.55;;
14019;SDS011;7085;51.428;6.796;2022-10-22T12:43:47;3.20;;;0.95;;
14019;SDS011;7085;51.428;6.796;2022-10-22T12:46:14;2.28;;;1.08;;
14019;SDS011;7085;51.428;6.796;2022-10-22T12:48:42;3.45;;;1.35;;
14019;SDS011;7085;51.428;6.796;2022-10-22T12:51:13;5.20;;;0.88;;
14019;SDS011;7085;51.428;6.796;2022-10-22T12:53:44;3.22;;;1.20;;
14019;SDS011;7085;51.428;6.796;2022-10-22T12:56:14;4.65;;;1.20;;
14019;SDS011;7085;51.428;6.796;2022-10-22T12:58:47;3.92;;;1.38;;
14019;SDS011;7085;51.428;6.796;2022-10-22T13:01:17;4.05;;;1.38;;
14019;SDS011;7085;51.428;6.796;2022-10-22T13:03:45;6.97;;;1.48;;
14019;SDS011;7085;51.428;6.796;2022-10-22T13:06:22;4.25;;;1.33;;
14019;SDS011;7085;51.428;6.796;2022-10-22T13:08:57;2.17;;;0.75;;
14019;SDS011;7085;51.428;6.796;2022-10-22T13:11:32;4.70;;;1.02;;
14019;SDS011;7085;51.428;6.796;2022-10-22T13:14:04;1.58;;;1.00;;
14019;SDS011;7085;51.428;6.796;2022-10-22T13:16:40;1.80;;;1.08;;
14019;SDS011;7085;51.428;6.796;2022-10-22T13:24:51;4.03;;;1.17;;
14019;SDS011;7085;51.428;6.796;2022-10-22T13:27:20;2.58;;;1.00;;
14019;SDS011;7085;51.428;6.796;2022-10-22T13:29:48;3.75;;;1.08;;
14019;SDS011;7085;51.428;6.796;2022-10-22T13:32:25;3.88;;;1.40;;
14019;SDS011;7085;51.428;6.796;2022-10-22T13:34:55;6.05;;;1.75;;
14019;SDS011;7085;51.428;6.796;2022-10-22T13:37:24;4.85;;;1.27;;
14019;SDS011;7085;51.428;6.796;2022-10-22T13:39:52;5.80;;;1.25;;
14019;SDS011;7085;51.428;6.796;2022-10-22T13:42:19;3.60;;;1.40;;
14019;SDS011;7085;51.428;6.796;2022-10-22T13:44:46;4.45;;;1.58;;
14019;SDS011;7085;51.428;6.796;2022-10-22T13:47:17;4.53;;;1.17;;
14019;SDS011;7085;51.428;6.796;2022-10-22T13:49:49;1.85;;;0.93;;
14019;SDS011;7085;51.428;6.796;2022-10-22T13:52:25;4.25;;;1.00;;
14019;SDS011;7085;51.428;6.796;2022-10-22T13:54:56;2.88;;;1.00;;
14019;SDS011;7085;51.428;6.796;2022-10-22T13:57:23;3.15;;;1.40;;
14019;SDS011;7085;51.428;6.796;2022-10-22T13:59:50;5.93;;;1.20;;
14019;SDS011;7085;51.428;6.796;2022-10-22T14:02:18;2.55;;;1.20;;
14019;SDS011;7085;51.428;6.796;2022-10-22T14:04:48;4.57;;;1.27;;
14019;SDS011;7085;51.428;6.796;2022-10-22T14:07:16;3.05;;;1.02;;
14019;SDS011;7085;51.428;6.796;2022-10-22T14:09:43;2.53;;;1.17;;
14019;SDS011;7085;51.428;6.796;2022-10-22T14:12:10;4.60;;;1.50;;
14019;SDS011;7085;51.428;6.796;2022-10-22T14:14:39;4.72;;;1.17;;
14019;SDS011;7085;51.428;6.796;2022-10-22T14:17:07;3.67;;;1.30;;
14019;SDS011;7085;51.428;6.796;2022-10-22T14:19:41;2.53;;;1.45;;
14019;SDS011;7085;51.428;6.796;2022-10-22T14:22:10;3.72;;;1.05;;
14019;SDS011;7085;51.428;6.796;2022-10-22T14:24:38;4.45;;;1.15;;
14019;SDS011;7085;51.428;6.796;2022-10-22T14:27:05;3.10;;;1.20;;
14019;SDS011;7085;51.428;6.796;2022-10-22T14:29:35;3.65;;;0.80;;
14019;SDS011;7085;51.428;6.796;2022-10-22T14:32:02;5.93;;;1.55;;
14019;SDS011;7085;51.428;6.796;2022-10-22T14:34:28;3.70;;;1.55;;
14019;SDS011;7085;51.428;6.796;2022-10-22T14:36:57;2.63;;;1.30;;
14019;SDS011;7085;51.428;6.796;2022-10-22T14:39:23;2.15;;;0.95;;
14019;SDS011;7085;51.428;6.796;2022-10-22T14:41:50;4.10;;;1.20;;
14019;SDS011;7085;51.428;6.796;2022-10-22T14:44:17;4.30;;;0.93;;
14019;SDS011;7085;51.428;6.796;2022-10-22T14:46:43;2.78;;;1.13;;
14019;SDS011;7085;51.428;6.796;2022-10-22T14:49:10;2.55;;;0.95;;
14019;SDS011;7085;51.428;6.796;2022-10-22T14:51:37;4.78;;;0.98;;
14019;SDS011;7085;51.428;6.796;2022-10-22T14:54:05;3.15;;;1.10;;
14019;SDS011;7085;51.428;6.796;2022-10-22T14:56:32;3.03;;;1.00;;
14019;SDS011;7085;51.428;6.796;2022-10-22T14:58:59;7.10;;;1.80;;
14019;SDS011;7085;51.428;6.796;2022-10-22T15:01:26;3.63;;;1.70;;
14019;SDS011;7085;51.428;6.796;2022-10-22T15:03:53;4.43;;;1.27;;
14019;SDS011;7085;51.428;6.796;2022-10-22T15:06:19;2.22;;;1.27;;
14019;SDS011;7085;51.428;6.796;2022-10-22T15:08:46;6.07;;;1.38;;
14019;SDS011;7085;51.428;6.796;2022-10-22T15:11:14;3.80;;;1.30;;
14019;SDS011;7085;51.428;6.796;2022-10-22T15:13:41;3.03;;;1.00;;
14019;SDS011;7085;51.428;6.796;2022-10-22T15:16:08;3.92;;;1.45;;
14019;SDS011;7085;51.428;6.796;2022-10-22T15:18:36;2.58;;;1.70;;
14019;SDS011;7085;51.428;6.796;2022-10-22T15:21:04;3.45;;;1.52;;
14019;SDS011;7085;51.428;6.796;2022-10-22T15:23:32;2.72;;;1.25;;
14019;SDS011;7085;51.428;6.796;2022-10-22T15:25:58;2.55;;;1.33;;
14019;SDS011;7085;51.428;6.796;2022-10-22T15:28:27;5.00;;;1.35;;
14019;SDS011;7085;51.428;6.796;2022-10-22T15:30:54;2.53;;;0.90;;